sensor_id;sensor_type;location;lat;lon;timestamp;P1;durP1;ratioP1;P2;durP2;ratioP2
6306;SDS011;3186;54.062;9.962;2022-11-04T00:01:50;5.53;;;3.37;;
6306;SDS011;3186;54.062;9.962;2022-11-04T00:04:17;10.80;;;3.43;;
6306;SDS011;3186;54.062;9.962;2022-11-04T00:06:44;4.67;;;3.30;;
6306;SDS011;3186;54.062;9.962;2022-11-04T00:09:11;8.77;;;3.67;;
6306;SDS011;3186;54.062;9.962;2022-11-04T00:11:42;7.03;;;2.80;;
6306;SDS011;3186;54.062;9.962;2022-11-04T00:14:27;9.83;;;4.00;;
6306;SDS011;3186;54.062;9.962;2022-11-04T00:16:54;7.20;;;3.10;;
6306;SDS011;3186;54.062;9.962;2022-11-04T00:19:39;5.07;;;3.00;;
6306;SDS011;3186;54.062;9.962;2022-11-04T00:22:23;8.57;;;3.00;;
6306;SDS011;3186;54.062;9.962;2022-11-04T00:25:08;9.63;;;2.97;;
6306;SDS011;3186;54.062;9.962;2022-11-04T00:28:00;9.77;;;3.10;;
6306;SDS011;3186;54.062;9.962;2022-11-04T00:30:48;5.53;;;2.77;;
6306;SDS011;3186;54.062;9.962;2022-11-04T00:33:17;7.40;;;2.87;;
6306;SDS011;3186;54.062;9.962;2022-11-04T00:35:50;6.53;;;3.27;;
6306;SDS011;3186;54.062;9.962;2022-11-04T00:38:21;9.93;;;3.87;;
6306;SDS011;3186;54.062;9.962;2022-11-04T00:40:50;7.27;;;3.17;;
6306;SDS011;3186;54.062;9.962;2022-11-04T00:43:16;5.87;;;2.93;;
6306;SDS011;3186;54.062;9.962;2022-11-04T00:45:41;6.57;;;2.83;;
6306;SDS011;3186;54.062;9.962;2022-11-04T00:48:07;8.37;;;2.80;;
6306;SDS011;3186;54.062;9.962;2022-11-04T00:50:33;6.30;;;3.27;;
6306;SDS011;3186;54.062;9.962;2022-11-04T00:53:00;10.13;;;2.73;;
6306;SDS011;3186;54.062;9.962;2022-11-04T00:55:27;10.33;;;3.60;;
6306;SDS011;3186;54.062;9.962;2022-11-04T00:57:53;7.57;;;3.07;;
6306;SDS011;3186;54.062;9.962;2022-11-04T01:00:20;7.07;;;3.43;;
6306;SDS011;3186;54.062;9.962;2022-11-04T01:02:46;6.73;;;3.40;;
6306;SDS011;3186;54.062;9.962;2022-11-04T01:05:12;6.37;;;2.73;;
6306;SDS011;3186;54.062;9.962;2022-11-04T01:07:38;6.17;;;2.73;;
6306;SDS011;3186;54.062;9.962;2022-11-04T01:10:04;4.97;;;2.80;;
6306;SDS011;3186;54.062;9.962;2022-11-04T01:12:31;3.80;;;2.87;;
6306;SDS011;3186;54.062;9.962;2022-11-04T01:14:57;5.80;;;3.13;;
6306;SDS011;3186;54.062;9.962;2022-11-04T01:17:23;4.83;;;2.83;;
6306;SDS011;3186;54.062;9.962;2022-11-04T01:19:49;3.87;;;2.67;;
6306;SDS011;3186;54.062;9.962;2022-11-04T01:22:15;5.80;;;2.80;;
6306;SDS011;3186;54.062;9.962;2022-11-04T01:24:41;5.30;;;3.13;;
6306;SDS011;3186;54.062;9.962;2022-11-04T01:27:06;9.17;;;3.50;;
6306;SDS011;3186;54.062;9.962;2022-11-04T01:29:32;7.93;;;3.30;;
6306;SDS011;3186;54.062;9.962;2022-11-04T01:31:58;6.43;;;3.20;;
6306;SDS011;3186;54.062;9.962;2022-11-04T01:34:24;9.20;;;3.77;;
6306;SDS011;3186;54.062;9.962;2022-11-04T01:36:50;8.97;;;3.23;;
6306;SDS011;3186;54.062;9.962;2022-11-04T01:39:16;8.63;;;3.33;;
6306;SDS011;3186;54.062;9.962;2022-11-04T01:41:41;6.00;;;3.33;;
6306;SDS011;3186;54.062;9.962;2022-11-04T01:50:11;6.20;;;3.03;;
6306;SDS011;3186;54.062;9.962;2022-11-04T01:55:17;5.20;;;3.40;;
6306;SDS011;3186;54.062;9.962;2022-11-04T01:57:53;6.63;;;3.50;;
6306;SDS011;3186;54.062;9.962;2022-11-04T02:00:24;9.13;;;3.87;;
6306;SDS011;3186;54.062;9.962;2022-11-04T02:05:28;6.17;;;3.37;;
6306;SDS011;3186;54.062;9.962;2022-11-04T02:07:56;7.07;;;3.37;;
6306;SDS011;3186;54.062;9.962;2022-11-04T02:10:24;5.17;;;3.17;;
6306;SDS011;3186;54.062;9.962;2022-11-04T02:12:51;5.90;;;3.47;;
6306;SDS011;3186;54.062;9.962;2022-11-04T02:15:22;6.97;;;3.87;;
6306;SDS011;3186;54.062;9.962;2022-11-04T02:35:13;6.23;;;3.40;;
6306;SDS011;3186;54.062;9.962;2022-11-04T02:48:57;6.63;;;3.47;;
6306;SDS011;3186;54.062;9.962;2022-11-04T02:51:44;7.03;;;3.10;;
6306;SDS011;3186;54.062;9.962;2022-11-04T02:54:18;7.23;;;3.30;;
6306;SDS011;3186;54.062;9.962;2022-11-04T02:57:06;6.97;;;4.10;;
6306;SDS011;3186;54.062;9.962;2022-11-04T02:59:35;6.70;;;3.73;;
6306;SDS011;3186;54.062;9.962;2022-11-04T03:02:06;8.40;;;5.23;;
6306;SDS011;3186;54.062;9.962;2022-11-04T03:04:38;5.50;;;3.70;;
6306;SDS011;3186;54.062;9.962;2022-11-04T03:07:09;7.47;;;4.17;;
6306;SDS011;3186;54.062;9.962;2022-11-04T03:09:39;5.67;;;3.80;;
6306;SDS011;3186;54.062;9.962;2022-11-04T03:12:11;9.27;;;4.50;;
6306;SDS011;3186;54.062;9.962;2022-11-04T03:14:41;8.17;;;3.90;;
6306;SDS011;3186;54.062;9.962;2022-11-04T03:17:16;4.97;;;3.60;;
6306;SDS011;3186;54.062;9.962;2022-11-04T03:19:50;10.23;;;4.70;;
6306;SDS011;3186;54.062;9.962;2022-11-04T03:22:22;9.17;;;4.23;;
6306;SDS011;3186;54.062;9.962;2022-11-04T03:24:58;6.23;;;4.17;;
6306;SDS011;3186;54.062;9.962;2022-11-04T03:30:17;5.87;;;3.57;;
6306;SDS011;3186;54.062;9.962;2022-11-04T03:35:29;7.13;;;4.10;;
6306;SDS011;3186;54.062;9.962;2022-11-04T03:37:56;6.87;;;3.43;;
6306;SDS011;3186;54.062;9.962;2022-11-04T03:40:22;7.70;;;4.50;;
6306;SDS011;3186;54.062;9.962;2022-11-04T03:42:59;7.57;;;4.33;;
6306;SDS011;3186;54.062;9.962;2022-11-04T03:45:34;5.90;;;4.17;;
6306;SDS011;3186;54.062;9.962;2022-11-04T03:48:01;7.63;;;3.67;;
6306;SDS011;3186;54.062;9.962;2022-11-04T03:50:28;8.57;;;3.90;;
6306;SDS011;3186;54.062;9.962;2022-11-04T03:52:56;9.13;;;4.70;;
6306;SDS011;3186;54.062;9.962;2022-11-04T03:55:31;7.40;;;4.33;;
6306;SDS011;3186;54.062;9.962;2022-11-04T04:00:33;7.03;;;4.80;;
6306;SDS011;3186;54.062;9.962;2022-11-04T04:08:21;8.83;;;4.80;;
6306;SDS011;3186;54.062;9.962;2022-11-04T04:13:43;10.50;;;4.93;;
6306;SDS011;3186;54.062;9.962;2022-11-04T04:16:21;10.40;;;4.83;;
6306;SDS011;3186;54.062;9.962;2022-11-04T04:19:04;6.73;;;4.40;;
6306;SDS011;3186;54.062;9.962;2022-11-04T04:21:33;7.27;;;4.80;;
6306;SDS011;3186;54.062;9.962;2022-11-04T04:24:04;8.43;;;4.03;;
6306;SDS011;3186;54.062;9.962;2022-11-04T04:26:51;7.27;;;3.83;;
6306;SDS011;3186;54.062;9.962;2022-11-04T04:29:37;7.93;;;4.40;;
6306;SDS011;3186;54.062;9.962;2022-11-04T04:32:04;5.43;;;4.10;;
6306;SDS011;3186;54.062;9.962;2022-11-04T04:34:31;6.43;;;4.10;;
6306;SDS011;3186;54.062;9.962;2022-11-04T04:37:02;8.47;;;4.90;;
6306;SDS011;3186;54.062;9.962;2022-11-04T04:39:42;9.23;;;5.33;;
6306;SDS011;3186;54.062;9.962;2022-11-04T04:42:31;7.53;;;4.80;;
6306;SDS011;3186;54.062;9.962;2022-11-04T04:45:22;7.37;;;4.47;;
6306;SDS011;3186;54.062;9.962;2022-11-04T04:47:49;8.83;;;4.90;;
6306;SDS011;3186;54.062;9.962;2022-11-04T04:50:16;11.10;;;5.67;;
6306;SDS011;3186;54.062;9.962;2022-11-04T04:52:45;9.13;;;5.07;;
6306;SDS011;3186;54.062;9.962;2022-11-04T04:55:17;10.17;;;5.40;;
6306;SDS011;3186;54.062;9.962;2022-11-04T04:57:43;8.97;;;6.20;;
6306;SDS011;3186;54.062;9.962;2022-11-04T05:00:12;13.37;;;7.03;;
6306;SDS011;3186;54.062;9.962;2022-11-04T05:02:39;10.33;;;5.13;;
6306;SDS011;3186;54.062;9.962;2022-11-04T05:05:05;6.57;;;5.60;;
6306;SDS011;3186;54.062;9.962;2022-11-04T05:07:31;8.57;;;6.00;;
6306;SDS011;3186;54.062;9.962;2022-11-04T05:09:57;10.57;;;6.63;;
6306;SDS011;3186;54.062;9.962;2022-11-04T05:12:23;9.40;;;5.60;;
6306;SDS011;3186;54.062;9.962;2022-11-04T05:14:49;6.87;;;5.80;;
6306;SDS011;3186;54.062;9.962;2022-11-04T05:17:15;11.30;;;6.67;;
6306;SDS011;3186;54.062;9.962;2022-11-04T05:19:41;10.07;;;5.83;;
6306;SDS011;3186;54.062;9.962;2022-11-04T05:22:06;8.50;;;5.80;;
6306;SDS011;3186;54.062;9.962;2022-11-04T05:24:32;6.87;;;5.53;;
6306;SDS011;3186;54.062;9.962;2022-11-04T05:26:58;8.60;;;5.37;;
6306;SDS011;3186;54.062;9.962;2022-11-04T05:29:24;6.83;;;5.20;;
6306;SDS011;3186;54.062;9.962;2022-11-04T05:31:50;6.90;;;4.93;;
6306;SDS011;3186;54.062;9.962;2022-11-04T05:34:15;7.40;;;4.93;;
6306;SDS011;3186;54.062;9.962;2022-11-04T05:36:41;5.67;;;4.33;;
6306;SDS011;3186;54.062;9.962;2022-11-04T05:39:09;5.53;;;4.30;;
6306;SDS011;3186;54.062;9.962;2022-11-04T05:41:36;8.77;;;5.10;;
6306;SDS011;3186;54.062;9.962;2022-11-04T05:44:02;13.13;;;6.27;;
6306;SDS011;3186;54.062;9.962;2022-11-04T05:46:29;5.07;;;3.57;;
6306;SDS011;3186;54.062;9.962;2022-11-04T05:48:55;5.80;;;3.37;;
6306;SDS011;3186;54.062;9.962;2022-11-04T05:51:22;5.67;;;2.97;;
6306;SDS011;3186;54.062;9.962;2022-11-04T05:53:50;3.33;;;2.80;;
6306;SDS011;3186;54.062;9.962;2022-11-04T05:56:16;6.20;;;3.27;;
6306;SDS011;3186;54.062;9.962;2022-11-04T05:58:42;3.00;;;2.07;;
6306;SDS011;3186;54.062;9.962;2022-11-04T06:01:28;4.43;;;2.03;;
6306;SDS011;3186;54.062;9.962;2022-11-04T06:03:54;3.47;;;1.83;;
6306;SDS011;3186;54.062;9.962;2022-11-04T06:06:21;2.60;;;1.87;;
6306;SDS011;3186;54.062;9.962;2022-11-04T06:08:49;3.27;;;1.67;;
6306;SDS011;3186;54.062;9.962;2022-11-04T06:11:15;1.40;;;1.30;;
6306;SDS011;3186;54.062;9.962;2022-11-04T06:13:41;3.83;;;1.50;;
6306;SDS011;3186;54.062;9.962;2022-11-04T06:16:07;1.67;;;1.33;;
6306;SDS011;3186;54.062;9.962;2022-11-04T06:18:33;1.37;;;1.27;;
6306;SDS011;3186;54.062;9.962;2022-11-04T06:21:32;1.90;;;1.30;;
6306;SDS011;3186;54.062;9.962;2022-11-04T06:23:52;2.00;;;1.23;;
6306;SDS011;3186;54.062;9.962;2022-11-04T06:26:22;1.30;;;1.20;;
6306;SDS011;3186;54.062;9.962;2022-11-04T06:28:49;2.40;;;1.27;;
6306;SDS011;3186;54.062;9.962;2022-11-04T06:31:15;1.20;;;1.00;;
6306;SDS011;3186;54.062;9.962;2022-11-04T06:33:42;1.03;;;1.00;;
6306;SDS011;3186;54.062;9.962;2022-11-04T06:36:09;0.93;;;0.73;;
6306;SDS011;3186;54.062;9.962;2022-11-04T06:38:37;1.00;;;0.90;;
6306;SDS011;3186;54.062;9.962;2022-11-04T06:41:07;1.80;;;1.23;;
6306;SDS011;3186;54.062;9.962;2022-11-04T06:43:36;1.20;;;1.00;;
6306;SDS011;3186;54.062;9.962;2022-11-04T06:46:01;2.37;;;1.10;;
6306;SDS011;3186;54.062;9.962;2022-11-04T06:48:28;1.47;;;0.97;;
6306;SDS011;3186;54.062;9.962;2022-11-04T06:50:58;1.87;;;1.30;;
6306;SDS011;3186;54.062;9.962;2022-11-04T06:53:25;1.47;;;1.07;;
6306;SDS011;3186;54.062;9.962;2022-11-04T06:55:51;1.97;;;1.00;;
6306;SDS011;3186;54.062;9.962;2022-11-04T06:58:18;1.80;;;1.10;;
6306;SDS011;3186;54.062;9.962;2022-11-04T07:00:49;2.67;;;1.20;;
6306;SDS011;3186;54.062;9.962;2022-11-04T07:03:16;1.10;;;1.00;;
6306;SDS011;3186;54.062;9.962;2022-11-04T07:05:42;3.10;;;1.03;;
6306;SDS011;3186;54.062;9.962;2022-11-04T07:08:08;2.93;;;1.27;;
6306;SDS011;3186;54.062;9.962;2022-11-04T07:10:33;1.60;;;1.30;;
6306;SDS011;3186;54.062;9.962;2022-11-04T07:12:59;2.97;;;1.00;;
6306;SDS011;3186;54.062;9.962;2022-11-04T07:15:25;2.07;;;1.10;;
6306;SDS011;3186;54.062;9.962;2022-11-04T07:17:51;2.40;;;1.20;;
6306;SDS011;3186;54.062;9.962;2022-11-04T07:20:17;2.30;;;1.13;;
6306;SDS011;3186;54.062;9.962;2022-11-04T07:22:43;2.20;;;1.77;;
6306;SDS011;3186;54.062;9.962;2022-11-04T07:25:08;3.23;;;1.93;;
6306;SDS011;3186;54.062;9.962;2022-11-04T07:27:34;1.47;;;1.23;;
6306;SDS011;3186;54.062;9.962;2022-11-04T07:30:00;1.40;;;1.10;;
6306;SDS011;3186;54.062;9.962;2022-11-04T07:32:26;1.93;;;1.07;;
6306;SDS011;3186;54.062;9.962;2022-11-04T07:34:52;3.03;;;1.40;;
6306;SDS011;3186;54.062;9.962;2022-11-04T07:37:18;1.20;;;1.10;;
6306;SDS011;3186;54.062;9.962;2022-11-04T07:39:43;2.87;;;1.40;;
6306;SDS011;3186;54.062;9.962;2022-11-04T07:42:09;1.80;;;1.20;;
6306;SDS011;3186;54.062;9.962;2022-11-04T07:44:37;2.63;;;1.40;;
6306;SDS011;3186;54.062;9.962;2022-11-04T07:47:03;2.40;;;1.50;;
6306;SDS011;3186;54.062;9.962;2022-11-04T07:49:29;2.23;;;1.60;;
6306;SDS011;3186;54.062;9.962;2022-11-04T07:51:55;4.00;;;1.53;;
6306;SDS011;3186;54.062;9.962;2022-11-04T07:54:21;2.07;;;1.87;;
6306;SDS011;3186;54.062;9.962;2022-11-04T07:56:46;2.10;;;1.63;;
6306;SDS011;3186;54.062;9.962;2022-11-04T07:59:12;2.03;;;1.70;;
6306;SDS011;3186;54.062;9.962;2022-11-04T08:01:38;4.60;;;1.60;;
6306;SDS011;3186;54.062;9.962;2022-11-04T08:04:04;3.07;;;1.43;;
6306;SDS011;3186;54.062;9.962;2022-11-04T08:06:31;4.50;;;1.60;;
6306;SDS011;3186;54.062;9.962;2022-11-04T08:08:57;2.77;;;1.40;;
6306;SDS011;3186;54.062;9.962;2022-11-04T08:11:23;3.23;;;2.10;;
6306;SDS011;3186;54.062;9.962;2022-11-04T08:13:52;2.17;;;1.43;;
6306;SDS011;3186;54.062;9.962;2022-11-04T08:16:20;4.87;;;1.77;;
6306;SDS011;3186;54.062;9.962;2022-11-04T08:18:47;5.03;;;2.40;;
6306;SDS011;3186;54.062;9.962;2022-11-04T08:21:15;2.50;;;1.77;;
6306;SDS011;3186;54.062;9.962;2022-11-04T08:23:41;4.47;;;2.13;;
6306;SDS011;3186;54.062;9.962;2022-11-04T08:26:08;2.03;;;1.93;;
6306;SDS011;3186;54.062;9.962;2022-11-04T08:28:35;5.10;;;2.40;;
6306;SDS011;3186;54.062;9.962;2022-11-04T08:31:02;3.60;;;1.73;;
6306;SDS011;3186;54.062;9.962;2022-11-04T08:33:30;1.77;;;1.67;;
6306;SDS011;3186;54.062;9.962;2022-11-04T08:35:58;1.83;;;1.70;;
6306;SDS011;3186;54.062;9.962;2022-11-04T08:38:36;3.17;;;1.60;;
6306;SDS011;3186;54.062;9.962;2022-11-04T08:41:03;2.27;;;1.67;;
6306;SDS011;3186;54.062;9.962;2022-11-04T08:43:30;2.33;;;1.77;;
6306;SDS011;3186;54.062;9.962;2022-11-04T08:45:58;3.43;;;1.90;;
6306;SDS011;3186;54.062;9.962;2022-11-04T08:48:24;2.13;;;1.60;;
6306;SDS011;3186;54.062;9.962;2022-11-04T08:50:50;1.77;;;1.60;;
6306;SDS011;3186;54.062;9.962;2022-11-04T08:53:17;11.50;;;1.70;;
6306;SDS011;3186;54.062;9.962;2022-11-04T08:55:43;1.43;;;1.33;;
6306;SDS011;3186;54.062;9.962;2022-11-04T08:58:09;1.87;;;1.60;;
6306;SDS011;3186;54.062;9.962;2022-11-04T09:00:36;2.63;;;1.60;;
6306;SDS011;3186;54.062;9.962;2022-11-04T09:03:02;3.57;;;1.70;;
6306;SDS011;3186;54.062;9.962;2022-11-04T09:05:28;2.43;;;1.50;;
6306;SDS011;3186;54.062;9.962;2022-11-04T09:07:55;2.20;;;1.80;;
6306;SDS011;3186;54.062;9.962;2022-11-04T09:10:21;1.63;;;1.30;;
6306;SDS011;3186;54.062;9.962;2022-11-04T09:12:47;2.97;;;1.70;;
6306;SDS011;3186;54.062;9.962;2022-11-04T09:15:13;1.50;;;1.40;;
6306;SDS011;3186;54.062;9.962;2022-11-04T09:17:39;2.07;;;1.37;;
6306;SDS011;3186;54.062;9.962;2022-11-04T09:20:05;1.53;;;1.30;;
6306;SDS011;3186;54.062;9.962;2022-11-04T09:22:31;4.67;;;1.40;;
6306;SDS011;3186;54.062;9.962;2022-11-04T09:24:57;3.33;;;1.83;;
6306;SDS011;3186;54.062;9.962;2022-11-04T09:27:23;4.17;;;1.80;;
6306;SDS011;3186;54.062;9.962;2022-11-04T09:29:49;1.53;;;1.43;;
6306;SDS011;3186;54.062;9.962;2022-11-04T09:32:15;2.87;;;2.00;;
6306;SDS011;3186;54.062;9.962;2022-11-04T09:34:41;1.57;;;1.43;;
6306;SDS011;3186;54.062;9.962;2022-11-04T09:37:06;1.40;;;1.30;;
6306;SDS011;3186;54.062;9.962;2022-11-04T09:39:32;3.80;;;2.03;;
6306;SDS011;3186;54.062;9.962;2022-11-04T09:44:26;1.63;;;1.53;;
6306;SDS011;3186;54.062;9.962;2022-11-04T09:47:03;5.23;;;2.10;;
6306;SDS011;3186;54.062;9.962;2022-11-04T09:49:31;2.07;;;1.50;;
6306;SDS011;3186;54.062;9.962;2022-11-04T09:52:02;3.27;;;1.67;;
6306;SDS011;3186;54.062;9.962;2022-11-04T09:54:38;3.87;;;2.57;;
6306;SDS011;3186;54.062;9.962;2022-11-04T09:57:12;2.40;;;1.60;;
6306;SDS011;3186;54.062;9.962;2022-11-04T09:59:42;1.97;;;1.87;;
6306;SDS011;3186;54.062;9.962;2022-11-04T10:05:14;3.33;;;2.03;;
6306;SDS011;3186;54.062;9.962;2022-11-04T10:11:01;2.53;;;1.93;;
6306;SDS011;3186;54.062;9.962;2022-11-04T10:21:38;3.87;;;1.83;;
6306;SDS011;3186;54.062;9.962;2022-11-04T10:26:48;4.23;;;1.83;;
6306;SDS011;3186;54.062;9.962;2022-11-04T10:29:32;3.77;;;1.40;;
6306;SDS011;3186;54.062;9.962;2022-11-04T10:32:00;3.60;;;1.57;;
6306;SDS011;3186;54.062;9.962;2022-11-04T10:34:35;1.43;;;1.23;;
6306;SDS011;3186;54.062;9.962;2022-11-04T10:37:15;3.10;;;1.40;;
6306;SDS011;3186;54.062;9.962;2022-11-04T10:39:45;3.33;;;1.50;;
6306;SDS011;3186;54.062;9.962;2022-11-04T10:42:15;2.97;;;1.17;;
6306;SDS011;3186;54.062;9.962;2022-11-04T10:44:43;2.50;;;1.20;;
6306;SDS011;3186;54.062;9.962;2022-11-04T10:52:43;2.77;;;1.33;;
6306;SDS011;3186;54.062;9.962;2022-11-04T10:58:02;3.20;;;1.10;;
6306;SDS011;3186;54.062;9.962;2022-11-04T11:00:41;2.50;;;1.00;;
6306;SDS011;3186;54.062;9.962;2022-11-04T11:03:27;2.90;;;1.30;;
6306;SDS011;3186;54.062;9.962;2022-11-04T11:06:12;2.40;;;1.20;;
6306;SDS011;3186;54.062;9.962;2022-11-04T11:08:57;2.57;;;1.30;;
6306;SDS011;3186;54.062;9.962;2022-11-04T11:11:49;3.57;;;1.07;;
6306;SDS011;3186;54.062;9.962;2022-11-04T11:14:17;1.47;;;0.93;;
6306;SDS011;3186;54.062;9.962;2022-11-04T11:16:52;4.83;;;1.30;;
6306;SDS011;3186;54.062;9.962;2022-11-04T11:19:19;2.60;;;1.07;;
6306;SDS011;3186;54.062;9.962;2022-11-04T11:21:48;2.07;;;0.90;;
6306;SDS011;3186;54.062;9.962;2022-11-04T11:24:17;1.63;;;1.00;;
6306;SDS011;3186;54.062;9.962;2022-11-04T11:26:44;2.23;;;1.03;;
6306;SDS011;3186;54.062;9.962;2022-11-04T11:29:32;2.67;;;0.97;;
6306;SDS011;3186;54.062;9.962;2022-11-04T11:34:56;2.60;;;1.10;;
6306;SDS011;3186;54.062;9.962;2022-11-04T11:37:26;2.47;;;1.00;;
6306;SDS011;3186;54.062;9.962;2022-11-04T11:39:55;3.90;;;1.00;;
6306;SDS011;3186;54.062;9.962;2022-11-04T11:42:21;1.73;;;0.80;;
6306;SDS011;3186;54.062;9.962;2022-11-04T11:44:49;2.23;;;1.00;;
6306;SDS011;3186;54.062;9.962;2022-11-04T11:52:37;4.03;;;1.20;;
6306;SDS011;3186;54.062;9.962;2022-11-04T11:55:14;2.87;;;1.20;;
6306;SDS011;3186;54.062;9.962;2022-11-04T11:58:13;1.83;;;1.17;;
6306;SDS011;3186;54.062;9.962;2022-11-04T12:03:31;6.37;;;1.60;;
6306;SDS011;3186;54.062;9.962;2022-11-04T12:22:11;3.93;;;1.50;;
6306;SDS011;3186;54.062;9.962;2022-11-04T12:24:57;4.67;;;1.30;;
6306;SDS011;3186;54.062;9.962;2022-11-04T12:27:40;4.77;;;1.27;;
6306;SDS011;3186;54.062;9.962;2022-11-04T12:30:18;7.73;;;1.20;;
6306;SDS011;3186;54.062;9.962;2022-11-04T12:40:55;3.57;;;1.57;;
6306;SDS011;3186;54.062;9.962;2022-11-04T12:46:36;3.17;;;1.13;;
6306;SDS011;3186;54.062;9.962;2022-11-04T12:57:43;1.97;;;0.93;;
6306;SDS011;3186;54.062;9.962;2022-11-04T13:00:12;7.20;;;1.40;;
6306;SDS011;3186;54.062;9.962;2022-11-04T13:08:38;6.87;;;1.17;;
6306;SDS011;3186;54.062;9.962;2022-11-04T13:16:38;3.60;;;1.43;;
6306;SDS011;3186;54.062;9.962;2022-11-04T13:19:19;4.97;;;1.03;;
6306;SDS011;3186;54.062;9.962;2022-11-04T13:22:08;3.60;;;0.93;;
6306;SDS011;3186;54.062;9.962;2022-11-04T13:24:39;3.40;;;1.10;;
6306;SDS011;3186;54.062;9.962;2022-11-04T13:27:24;6.93;;;1.73;;
6306;SDS011;3186;54.062;9.962;2022-11-04T13:38:40;2.00;;;1.03;;
6306;SDS011;3186;54.062;9.962;2022-11-04T13:44:04;5.33;;;1.40;;
6306;SDS011;3186;54.062;9.962;2022-11-04T13:46:51;5.13;;;1.57;;
6306;SDS011;3186;54.062;9.962;2022-11-04T13:49:23;4.30;;;1.30;;
6306;SDS011;3186;54.062;9.962;2022-11-04T13:57:19;4.77;;;1.30;;
6306;SDS011;3186;54.062;9.962;2022-11-04T14:06:00;10.73;;;2.00;;
6306;SDS011;3186;54.062;9.962;2022-11-04T14:08:29;5.53;;;1.63;;
6306;SDS011;3186;54.062;9.962;2022-11-04T14:18:27;3.33;;;1.27;;
6306;SDS011;3186;54.062;9.962;2022-11-04T14:21:11;6.40;;;1.27;;
6306;SDS011;3186;54.062;9.962;2022-11-04T14:23:39;5.37;;;1.43;;
6306;SDS011;3186;54.062;9.962;2022-11-04T14:26:17;2.97;;;1.20;;
6306;SDS011;3186;54.062;9.962;2022-11-04T14:29:21;8.00;;;1.20;;
6306;SDS011;3186;54.062;9.962;2022-11-04T14:31:50;4.33;;;1.13;;
6306;SDS011;3186;54.062;9.962;2022-11-04T14:34:25;5.07;;;1.60;;
6306;SDS011;3186;54.062;9.962;2022-11-04T14:36:56;5.53;;;1.17;;
6306;SDS011;3186;54.062;9.962;2022-11-04T14:39:32;6.93;;;1.97;;
6306;SDS011;3186;54.062;9.962;2022-11-04T14:42:03;4.50;;;1.10;;
6306;SDS011;3186;54.062;9.962;2022-11-04T14:47:16;4.80;;;1.17;;
6306;SDS011;3186;54.062;9.962;2022-11-04T14:55:11;2.27;;;0.97;;
6306;SDS011;3186;54.062;9.962;2022-11-04T14:57:46;4.30;;;1.40;;
6306;SDS011;3186;54.062;9.962;2022-11-04T15:02:59;5.73;;;1.70;;
6306;SDS011;3186;54.062;9.962;2022-11-04T15:05:30;5.63;;;1.17;;
6306;SDS011;3186;54.062;9.962;2022-11-04T15:08:01;1.80;;;1.03;;
6306;SDS011;3186;54.062;9.962;2022-11-04T15:10:42;2.77;;;0.93;;
6306;SDS011;3186;54.062;9.962;2022-11-04T15:13:17;3.27;;;1.30;;
6306;SDS011;3186;54.062;9.962;2022-11-04T15:15:44;5.23;;;1.10;;
6306;SDS011;3186;54.062;9.962;2022-11-04T15:18:24;3.57;;;1.30;;
6306;SDS011;3186;54.062;9.962;2022-11-04T15:20:57;4.93;;;1.40;;
6306;SDS011;3186;54.062;9.962;2022-11-04T15:25:58;5.17;;;1.60;;
6306;SDS011;3186;54.062;9.962;2022-11-04T15:28:31;3.33;;;1.40;;
6306;SDS011;3186;54.062;9.962;2022-11-04T15:31:07;4.33;;;1.40;;
6306;SDS011;3186;54.062;9.962;2022-11-04T15:33:41;5.80;;;1.80;;
6306;SDS011;3186;54.062;9.962;2022-11-04T15:36:14;6.13;;;1.83;;
6306;SDS011;3186;54.062;9.962;2022-11-04T15:41:32;4.30;;;1.70;;
6306;SDS011;3186;54.062;9.962;2022-11-04T15:44:21;2.67;;;1.20;;
6306;SDS011;3186;54.062;9.962;2022-11-04T15:46:53;3.73;;;1.73;;
6306;SDS011;3186;54.062;9.962;2022-11-04T15:49:24;3.70;;;1.37;;
6306;SDS011;3186;54.062;9.962;2022-11-04T15:51:58;3.57;;;1.57;;
6306;SDS011;3186;54.062;9.962;2022-11-04T15:54:33;2.40;;;1.27;;
6306;SDS011;3186;54.062;9.962;2022-11-04T15:57:13;3.77;;;1.47;;
6306;SDS011;3186;54.062;9.962;2022-11-04T15:59:45;5.27;;;1.40;;
6306;SDS011;3186;54.062;9.962;2022-11-04T16:02:32;3.93;;;1.27;;
6306;SDS011;3186;54.062;9.962;2022-11-04T16:05:19;5.50;;;2.13;;
6306;SDS011;3186;54.062;9.962;2022-11-04T16:11:06;4.80;;;1.77;;
6306;SDS011;3186;54.062;9.962;2022-11-04T16:13:33;4.93;;;2.20;;
6306;SDS011;3186;54.062;9.962;2022-11-04T16:21:08;6.20;;;1.90;;
6306;SDS011;3186;54.062;9.962;2022-11-04T16:23:46;3.73;;;1.60;;
6306;SDS011;3186;54.062;9.962;2022-11-04T16:26:15;4.03;;;1.40;;
6306;SDS011;3186;54.062;9.962;2022-11-04T16:28:47;5.73;;;1.60;;
6306;SDS011;3186;54.062;9.962;2022-11-04T16:33:51;5.33;;;1.50;;
6306;SDS011;3186;54.062;9.962;2022-11-04T16:36:17;4.97;;;1.77;;
6306;SDS011;3186;54.062;9.962;2022-11-04T16:41:23;2.43;;;1.43;;
6306;SDS011;3186;54.062;9.962;2022-11-04T16:43:51;4.57;;;1.60;;
6306;SDS011;3186;54.062;9.962;2022-11-04T16:46:17;4.57;;;1.70;;
6306;SDS011;3186;54.062;9.962;2022-11-04T16:48:44;4.30;;;1.50;;
6306;SDS011;3186;54.062;9.962;2022-11-04T16:51:17;6.47;;;1.80;;
6306;SDS011;3186;54.062;9.962;2022-11-04T16:53:46;5.47;;;1.63;;
6306;SDS011;3186;54.062;9.962;2022-11-04T16:56:14;4.40;;;1.77;;
6306;SDS011;3186;54.062;9.962;2022-11-04T16:58:43;5.20;;;2.20;;
6306;SDS011;3186;54.062;9.962;2022-11-04T17:01:10;11.23;;;2.97;;
6306;SDS011;3186;54.062;9.962;2022-11-04T17:03:42;8.87;;;2.80;;
6306;SDS011;3186;54.062;9.962;2022-11-04T17:06:09;8.43;;;3.00;;
6306;SDS011;3186;54.062;9.962;2022-11-04T17:08:35;8.83;;;2.70;;
6306;SDS011;3186;54.062;9.962;2022-11-04T17:11:02;7.63;;;3.10;;
6306;SDS011;3186;54.062;9.962;2022-11-04T17:13:28;3.17;;;2.40;;
6306;SDS011;3186;54.062;9.962;2022-11-04T17:15:54;6.67;;;2.90;;
6306;SDS011;3186;54.062;9.962;2022-11-04T17:18:20;5.63;;;2.87;;
6306;SDS011;3186;54.062;9.962;2022-11-04T17:20:46;8.53;;;2.60;;
6306;SDS011;3186;54.062;9.962;2022-11-04T17:23:15;6.13;;;2.27;;
6306;SDS011;3186;54.062;9.962;2022-11-04T17:25:42;4.00;;;2.30;;
6306;SDS011;3186;54.062;9.962;2022-11-04T17:28:08;5.40;;;2.43;;
6306;SDS011;3186;54.062;9.962;2022-11-04T17:30:34;7.87;;;2.40;;
6306;SDS011;3186;54.062;9.962;2022-11-04T17:33:00;12.20;;;2.57;;
6306;SDS011;3186;54.062;9.962;2022-11-04T17:35:31;9.27;;;2.73;;
6306;SDS011;3186;54.062;9.962;2022-11-04T17:37:59;8.03;;;2.70;;
6306;SDS011;3186;54.062;9.962;2022-11-04T17:40:25;5.53;;;2.33;;
6306;SDS011;3186;54.062;9.962;2022-11-04T17:42:51;7.27;;;2.60;;
6306;SDS011;3186;54.062;9.962;2022-11-04T17:45:35;7.17;;;2.20;;
6306;SDS011;3186;54.062;9.962;2022-11-04T17:48:02;7.17;;;2.43;;
6306;SDS011;3186;54.062;9.962;2022-11-04T17:50:29;8.53;;;2.50;;
6306;SDS011;3186;54.062;9.962;2022-11-04T17:52:55;8.30;;;2.70;;
6306;SDS011;3186;54.062;9.962;2022-11-04T17:55:21;7.47;;;3.07;;
6306;SDS011;3186;54.062;9.962;2022-11-04T17:57:47;10.03;;;3.40;;
6306;SDS011;3186;54.062;9.962;2022-11-04T18:00:13;8.63;;;2.90;;
6306;SDS011;3186;54.062;9.962;2022-11-04T18:02:39;8.40;;;3.10;;
6306;SDS011;3186;54.062;9.962;2022-11-04T18:05:06;7.90;;;2.83;;
6306;SDS011;3186;54.062;9.962;2022-11-04T18:07:32;7.33;;;2.93;;
6306;SDS011;3186;54.062;9.962;2022-11-04T18:09:59;5.30;;;2.90;;
6306;SDS011;3186;54.062;9.962;2022-11-04T18:12:25;6.03;;;2.57;;
6306;SDS011;3186;54.062;9.962;2022-11-04T18:15:06;7.60;;;2.77;;
6306;SDS011;3186;54.062;9.962;2022-11-04T18:17:41;6.33;;;3.07;;
6306;SDS011;3186;54.062;9.962;2022-11-04T18:20:09;6.83;;;3.30;;
6306;SDS011;3186;54.062;9.962;2022-11-04T18:22:38;7.63;;;3.10;;
6306;SDS011;3186;54.062;9.962;2022-11-04T18:25:04;8.07;;;3.20;;
6306;SDS011;3186;54.062;9.962;2022-11-04T18:27:31;7.83;;;3.07;;
6306;SDS011;3186;54.062;9.962;2022-11-04T18:29:57;7.70;;;3.43;;
6306;SDS011;3186;54.062;9.962;2022-11-04T18:32:22;6.70;;;3.13;;
6306;SDS011;3186;54.062;9.962;2022-11-04T18:34:49;6.20;;;3.10;;
6306;SDS011;3186;54.062;9.962;2022-11-04T18:37:15;9.20;;;3.83;;
6306;SDS011;3186;54.062;9.962;2022-11-04T18:39:41;11.83;;;3.73;;
6306;SDS011;3186;54.062;9.962;2022-11-04T18:42:07;8.47;;;3.57;;
6306;SDS011;3186;54.062;9.962;2022-11-04T18:44:34;8.43;;;3.20;;
6306;SDS011;3186;54.062;9.962;2022-11-04T18:47:00;7.30;;;3.53;;
6306;SDS011;3186;54.062;9.962;2022-11-04T18:49:26;10.13;;;3.93;;
6306;SDS011;3186;54.062;9.962;2022-11-04T18:51:52;7.97;;;3.20;;
6306;SDS011;3186;54.062;9.962;2022-11-04T18:54:18;7.80;;;3.27;;
6306;SDS011;3186;54.062;9.962;2022-11-04T18:56:44;8.77;;;3.50;;